Time;durP1;ratioP1;P1;durP2;ratioP2;P2;SDS_P1;SDS_P2;PMS_P1;PMS_P2;Temp;Humidity;BMP_temperature;BMP_pressure;BME280_temperature;BME280_humidity;BME280_pressure;Samples;Min_cycle;Max_cycle;Signal;HPM_P1;HPM_P2
2022/03/13 00:00:10;;;;;;;3.77;2.93;;;;;;;;;;5038180;28;20279;-73
2022/03/13 00:02:38;;;;;;;3.43;2.43;;;;;;;;;;5038195;28;20286;-73
2022/03/13 00:05:08;;;;;;;3.43;2.97;;;;;;;;;;5037639;28;20649;-73
2022/03/13 00:07:39;;;;;;;2.40;2.20;;;;;;;;;;5037950;28;20243;-73
2022/03/13 00:10:14;;;;;;;3.87;2.90;;;;;;;;;;5025525;28;20269;-73
2022/03/13 00:12:43;;;;;;;3.00;2.80;;;;;;;;;;5037709;28;20231;-73
2022/03/13 00:15:12;;;;;;;2.90;2.60;;;;;;;;;;5037446;28;20246;-73
2022/03/13 00:17:40;;;;;;;3.23;2.47;;;;;;;;;;5037400;28;20741;-73
2022/03/13 00:20:11;;;;;;;5.57;3.00;;;;;;;;;;5037772;28;20286;-73
2022/03/13 00:22:39;;;;;;;3.33;2.60;;;;;;;;;;5037333;28;20215;-73
2022/03/13 00:25:09;;;;;;;3.87;2.30;;;;;;;;;;5037376;28;20242;-73
2022/03/13 00:27:39;;;;;;;3.57;2.63;;;;;;;;;;5037520;28;20214;-73
2022/03/13 00:30:07;;;;;;;3.20;2.27;;;;;;;;;;5037671;28;20207;-73
2022/03/13 00:32:35;;;;;;;2.67;2.47;;;;;;;;;;5037206;28;20263;-73
2022/03/13 00:35:04;;;;;;;2.77;2.57;;;;;;;;;;5037448;28;20246;-73
2022/03/13 00:37:32;;;;;;;2.83;2.60;;;;;;;;;;5037289;28;20287;-73
2022/03/13 00:40:01;;;;;;;3.07;2.50;;;;;;;;;;5036978;28;20215;-73
2022/03/13 00:42:29;;;;;;;2.60;2.40;;;;;;;;;;5037320;28;20235;-73
2022/03/13 00:44:59;;;;;;;2.73;2.53;;;;;;;;;;5037167;28;20278;-73
2022/03/13 00:47:27;;;;;;;2.80;2.50;;;;;;;;;;5024616;28;20242;-71
2022/03/13 00:49:55;;;;;;;4.73;2.77;;;;;;;;;;5037172;28;20279;-72
2022/03/13 00:52:23;;;;;;;2.90;2.70;;;;;;;;;;5037014;28;20251;-72
2022/03/13 00:54:51;;;;;;;2.67;2.47;;;;;;;;;;5036740;28;20717;-72
2022/03/13 00:57:19;;;;;;;3.10;2.80;;;;;;;;;;5037467;28;20266;-72
2022/03/13 00:59:47;;;;;;;2.70;2.50;;;;;;;;;;5037234;28;20287;-73
2022/03/13 01:02:17;;;;;;;2.70;2.17;;;;;;;;;;5037364;28;20203;-72
2022/03/13 01:04:45;;;;;;;2.50;2.30;;;;;;;;;;5037226;28;20207;-72
2022/03/13 01:07:14;;;;;;;2.80;2.53;;;;;;;;;;5036801;28;20651;-72
2022/03/13 01:09:42;;;;;;;2.00;1.90;;;;;;;;;;5036838;28;20238;-72
2022/03/13 01:12:11;;;;;;;3.27;2.40;;;;;;;;;;5036887;28;20653;-73
2022/03/13 01:14:39;;;;;;;5.27;2.33;;;;;;;;;;5036700;28;20243;-73
2022/03/13 01:17:08;;;;;;;3.83;2.40;;;;;;;;;;5036792;28;20663;-73
2022/03/13 01:19:38;;;;;;;2.23;2.13;;;;;;;;;;5037063;28;20294;-72
2022/03/13 01:22:12;;;;;;;2.70;2.50;;;;;;;;;;5037110;28;20203;-72
2022/03/13 01:24:42;;;;;;;2.30;2.20;;;;;;;;;;5036663;28;20246;-72
2022/03/13 01:27:11;;;;;;;2.97;2.20;;;;;;;;;;5036749;28;20685;-73
2022/03/13 01:29:39;;;;;;;2.40;2.20;;;;;;;;;;5036912;28;20313;-72
2022/03/13 01:32:09;;;;;;;3.10;2.63;;;;;;;;;;5036663;28;20762;-73
2022/03/13 01:34:54;;;;;;;2.73;2.17;;;;;;;;;;5037078;28;20246;-73
2022/03/13 01:37:31;;;;;;;3.07;2.87;;;;;;;;;;5035604;28;20214;-72
2022/03/13 01:39:59;;;;;;;2.50;2.30;;;;;;;;;;5036758;28;20207;-72
2022/03/13 01:42:28;;;;;;;2.40;2.20;;;;;;;;;;5036952;28;20227;-72
2022/03/13 01:44:56;;;;;;;2.70;2.50;;;;;;;;;;5036742;28;20240;-71
2022/03/13 01:47:24;;;;;;;2.90;2.67;;;;;;;;;;5036563;28;20235;-71
2022/03/13 01:49:52;;;;;;;2.43;2.03;;;;;;;;;;5036768;28;20291;-72
2022/03/13 01:52:24;;;;;;;2.37;2.17;;;;;;;;;;5036460;28;20263;-71
2022/03/13 01:54:53;;;;;;;2.67;2.37;;;;;;;;;;5039651;28;20299;-73
2022/03/13 01:57:21;;;;;;;2.50;2.30;;;;;;;;;;5040446;28;20208;-73
2022/03/13 01:59:50;;;;;;;2.70;2.50;;;;;;;;;;5040179;28;20248;-73
2022/03/13 02:02:20;;;;;;;3.13;2.70;;;;;;;;;;5040117;28;20231;-72
2022/03/13 02:04:50;;;;;;;3.23;2.93;;;;;;;;;;5040292;28;20207;-72
2022/03/13 02:07:18;;;;;;;2.50;2.30;;;;;;;;;;5040217;28;20262;-73
2022/03/13 02:09:46;;;;;;;2.60;2.40;;;;;;;;;;5039873;28;20242;-72
2022/03/13 02:12:18;;;;;;;3.07;2.60;;;;;;;;;;5039978;28;20319;-72
2022/03/13 02:14:46;;;;;;;3.93;2.97;;;;;;;;;;5039735;28;20239;-72
2022/03/13 02:17:24;;;;;;;2.53;2.30;;;;;;;;;;5039943;28;20310;-72
2022/03/13 02:19:52;;;;;;;2.93;2.53;;;;;;;;;;5040022;28;20242;-72
2022/03/13 02:22:20;;;;;;;2.60;2.40;;;;;;;;;;5039851;28;20231;-72
2022/03/13 02:24:50;;;;;;;3.00;2.67;;;;;;;;;;5039561;28;20246;-72
2022/03/13 02:27:20;;;;;;;2.43;2.23;;;;;;;;;;5039542;28;20310;-72
2022/03/13 02:29:48;;;;;;;2.40;2.20;;;;;;;;;;5039734;28;20290;-72
2022/03/13 02:32:18;;;;;;;3.33;2.83;;;;;;;;;;5039749;28;20230;-72
2022/03/13 02:34:46;;;;;;;3.53;2.60;;;;;;;;;;5039636;28;20211;-72
2022/03/13 02:37:20;;;;;;;3.23;2.60;;;;;;;;;;5039117;28;20263;-72
2022/03/13 02:39:48;;;;;;;3.63;2.47;;;;;;;;;;5039047;28;20605;-72
2022/03/13 02:42:17;;;;;;;2.83;2.63;;;;;;;;;;5039387;28;20234;-72
2022/03/13 02:44:45;;;;;;;3.40;2.77;;;;;;;;;;5039165;28;20225;-72
2022/03/13 02:47:13;;;;;;;3.10;2.80;;;;;;;;;;5038976;28;20306;-72
2022/03/13 02:49:41;;;;;;;2.70;2.50;;;;;;;;;;5039482;28;20214;-72
2022/03/13 02:52:13;;;;;;;3.57;3.17;;;;;;;;;;5039635;28;20290;-72
2022/03/13 02:54:41;;;;;;;3.63;2.87;;;;;;;;;;5038590;28;20263;-72
2022/03/13 02:57:09;;;;;;;2.87;2.63;;;;;;;;;;5038804;28;20259;-72
2022/03/13 02:59:38;;;;;;;3.07;2.70;;;;;;;;;;5038922;28;20286;-72
2022/03/13 03:02:06;;;;;;;3.90;3.03;;;;;;;;;;5038912;28;20234;-72
2022/03/13 03:04:34;;;;;;;3.53;3.17;;;;;;;;;;5038840;28;20203;-72
2022/03/13 03:07:04;;;;;;;2.50;2.30;;;;;;;;;;5038986;28;20259;-72
2022/03/13 03:09:33;;;;;;;2.90;2.70;;;;;;;;;;5038314;28;20290;-72
2022/03/13 03:12:04;;;;;;;3.07;2.70;;;;;;;;;;5038868;28;20254;-72
2022/03/13 03:14:33;;;;;;;3.30;3.00;;;;;;;;;;5038677;28;20604;-71
2022/03/13 03:17:04;;;;;;;3.10;2.80;;;;;;;;;;5038706;28;20262;-72
2022/03/13 03:19:32;;;;;;;3.10;2.90;;;;;;;;;;5038971;28;20214;-72
2022/03/13 03:22:01;;;;;;;3.33;3.03;;;;;;;;;;5038713;28;20214;-72
2022/03/13 03:24:29;;;;;;;3.50;3.20;;;;;;;;;;5037938;28;20207;-72
2022/03/13 03:26:58;;;;;;;4.13;3.73;;;;;;;;;;5038672;28;20230;-73
2022/03/13 03:29:26;;;;;;;3.37;3.07;;;;;;;;;;5038317;28;20294;-72
2022/03/13 03:31:55;;;;;;;4.23;3.10;;;;;;;;;;5038347;28;20207;-72
2022/03/13 03:34:25;;;;;;;2.97;2.63;;;;;;;;;;5038100;28;20873;-72
2022/03/13 03:36:54;;;;;;;3.87;3.20;;;;;;;;;;5038239;28;20262;-72
2022/03/13 03:39:22;;;;;;;7.37;3.50;;;;;;;;;;5038102;28;20246;-72
2022/03/13 03:41:52;;;;;;;3.50;3.20;;;;;;;;;;5038370;28;20239;-72
2022/03/13 03:44:20;;;;;;;3.47;3.17;;;;;;;;;;5038292;28;20254;-72
2022/03/13 03:46:48;;;;;;;3.70;3.30;;;;;;;;;;5037748;28;20286;-72
2022/03/13 03:49:17;;;;;;;4.57;2.97;;;;;;;;;;5038326;28;20203;-72
2022/03/13 03:51:46;;;;;;;3.87;3.10;;;;;;;;;;5037836;28;20294;-72
2022/03/13 03:54:14;;;;;;;4.27;3.70;;;;;;;;;;5037614;28;20728;-72
2022/03/13 03:56:42;;;;;;;7.93;3.80;;;;;;;;;;5037858;28;20770;-72
2022/03/13 03:59:11;;;;;;;3.60;3.30;;;;;;;;;;5037829;28;20261;-72
2022/03/13 04:01:40;;;;;;;4.37;3.67;;;;;;;;;;5038190;28;20291;-72
2022/03/13 04:04:15;;;;;;;3.23;2.93;;;;;;;;;;5037832;28;20246;-72
2022/03/13 04:06:43;;;;;;;4.03;3.13;;;;;;;;;;5037782;28;20310;-72
2022/03/13 04:09:12;;;;;;;3.97;3.57;;;;;;;;;;5037679;28;20265;-72
2022/03/13 04:11:41;;;;;;;4.00;3.60;;;;;;;;;;5038003;28;20238;-72
2022/03/13 04:14:09;;;;;;;3.87;3.53;;;;;;;;;;5037592;28;20661;-72
2022/03/13 04:16:37;;;;;;;4.07;3.47;;;;;;;;;;5037066;28;20250;-72
2022/03/13 04:19:06;;;;;;;4.40;3.60;;;;;;;;;;5037943;28;20214;-72
2022/03/13 04:21:34;;;;;;;4.23;3.20;;;;;;;;;;5037852;28;20290;-72
2022/03/13 04:24:03;;;;;;;4.37;3.57;;;;;;;;;;5036850;28;20650;-72
2022/03/13 04:26:33;;;;;;;4.17;3.40;;;;;;;;;;5037513;28;20730;-72
2022/03/13 04:29:01;;;;;;;6.77;3.50;;;;;;;;;;5037592;28;20269;-72
2022/03/13 04:31:29;;;;;;;4.13;3.27;;;;;;;;;;5037574;28;20271;-72
2022/03/13 04:33:57;;;;;;;4.50;3.97;;;;;;;;;;5037490;28;20224;-72
2022/03/13 04:36:25;;;;;;;3.67;3.37;;;;;;;;;;5037624;28;20291;-72
2022/03/13 04:38:53;;;;;;;4.43;3.50;;;;;;;;;;5037143;28;20238;-72
2022/03/13 04:41:21;;;;;;;3.83;3.17;;;;;;;;;;5037539;28;20250;-72
2022/03/13 04:43:51;;;;;;;4.33;3.53;;;;;;;;;;5037172;28;20643;-72
2022/03/13 04:46:19;;;;;;;4.17;3.73;;;;;;;;;;5033775;28;20317;-72
2022/03/13 04:48:47;;;;;;;5.33;3.97;;;;;;;;;;5035670;28;20558;-73
2022/03/13 04:51:15;;;;;;;3.60;3.30;;;;;;;;;;5036849;28;20287;-72
2022/03/13 04:53:43;;;;;;;5.47;4.07;;;;;;;;;;5036115;28;20266;-73
2022/03/13 04:56:11;;;;;;;4.70;4.30;;;;;;;;;;5036342;28;20749;-73
2022/03/13 04:58:39;;;;;;;8.00;3.87;;;;;;;;;;5035983;28;20237;-72
2022/03/13 05:01:09;;;;;;;3.97;3.63;;;;;;;;;;5034972;28;20254;-72
2022/03/13 05:03:37;;;;;;;4.53;4.07;;;;;;;;;;5034414;28;20214;-72
2022/03/13 05:06:05;;;;;;;4.83;3.80;;;;;;;;;;5035048;28;20257;-72
2022/03/13 05:08:34;;;;;;;6.97;3.83;;;;;;;;;;5036129;28;20231;-72
2022/03/13 05:11:03;;;;;;;4.23;3.83;;;;;;;;;;5036398;28;20235;-73
2022/03/13 05:13:31;;;;;;;5.53;3.67;;;;;;;;;;5034452;28;20231;-72
2022/03/13 05:15:59;;;;;;;4.07;3.60;;;;;;;;;;5036258;28;21627;-72
2022/03/13 05:18:29;;;;;;;6.83;4.23;;;;;;;;;;5036556;28;20287;-74
2022/03/13 05:20:57;;;;;;;6.13;3.80;;;;;;;;;;5036541;28;20235;-73
2022/03/13 05:23:25;;;;;;;5.70;3.30;;;;;;;;;;5036384;28;20278;-73
2022/03/13 05:25:53;;;;;;;5.13;3.67;;;;;;;;;;5036864;28;20663;-73
2022/03/13 05:28:21;;;;;;;4.73;4.17;;;;;;;;;;5037992;28;20648;-73
2022/03/13 05:30:49;;;;;;;4.67;3.77;;;;;;;;;;5040000;28;20222;-72
2022/03/13 05:33:17;;;;;;;4.53;4.00;;;;;;;;;;5040522;28;20239;-72
2022/03/13 05:35:47;;;;;;;4.03;3.70;;;;;;;;;;5037844;28;20634;-72
2022/03/13 05:38:15;;;;;;;4.37;3.93;;;;;;;;;;5039823;28;20659;-72
2022/03/13 05:40:43;;;;;;;5.33;3.80;;;;;;;;;;5040195;28;20199;-72
2022/03/13 05:43:14;;;;;;;7.63;4.10;;;;;;;;;;5047579;28;20290;-72
2022/03/13 05:45:42;;;;;;;6.17;4.27;;;;;;;;;;5039211;28;20235;-72
2022/03/13 05:48:15;;;;;;;6.63;4.33;;;;;;;;;;5040249;28;20236;-72
2022/03/13 05:50:43;;;;;;;5.33;3.87;;;;;;;;;;5037620;28;20223;-72
2022/03/13 05:53:13;;;;;;;5.00;3.77;;;;;;;;;;5039665;28;20287;-72
2022/03/13 05:55:40;;;;;;;5.27;3.30;;;;;;;;;;5040081;28;20306;-72
2022/03/13 05:58:09;;;;;;;5.83;3.87;;;;;;;;;;5040091;28;20232;-72
2022/03/13 06:00:39;;;;;;;4.80;4.03;;;;;;;;;;5040028;28;20238;-72
2022/03/13 06:03:08;;;;;;;4.93;3.57;;;;;;;;;;5044592;28;20254;-72
2022/03/13 06:05:37;;;;;;;4.63;3.70;;;;;;;;;;5041235;28;20560;-72
2022/03/13 06:08:05;;;;;;;4.60;3.60;;;;;;;;;;5039139;28;20728;-73
2022/03/13 06:10:34;;;;;;;4.27;3.87;;;;;;;;;;5040006;28;20287;-72
2022/03/13 06:13:02;;;;;;;4.50;3.90;;;;;;;;;;5039363;28;20234;-71
2022/03/13 06:15:32;;;;;;;3.93;3.50;;;;;;;;;;5039600;28;20665;-70
2022/03/13 06:18:01;;;;;;;3.77;3.40;;;;;;;;;;5039099;28;20203;-71
2022/03/13 06:20:29;;;;;;;4.80;3.47;;;;;;;;;;5039813;28;20195;-71
2022/03/13 06:22:59;;;;;;;4.20;3.80;;;;;;;;;;5039007;28;20200;-71
2022/03/13 06:25:27;;;;;;;3.93;3.57;;;;;;;;;;5039531;28;20291;-71
2022/03/13 06:27:56;;;;;;;5.87;3.60;;;;;;;;;;5039253;28;20228;-71
2022/03/13 06:30:25;;;;;;;5.97;3.57;;;;;;;;;;5039193;28;20278;-72
2022/03/13 06:32:54;;;;;;;3.90;3.50;;;;;;;;;;5039242;28;20304;-71
2022/03/13 06:35:23;;;;;;;3.83;3.23;;;;;;;;;;5039246;28;20219;-71
2022/03/13 06:37:54;;;;;;;5.27;4.20;;;;;;;;;;5038899;28;20238;-71
2022/03/13 06:40:23;;;;;;;5.50;3.53;;;;;;;;;;5036891;28;20204;-70
2022/03/13 06:42:52;;;;;;;6.00;3.43;;;;;;;;;;5039149;28;20231;-71
2022/03/13 06:45:22;;;;;;;4.20;3.80;;;;;;;;;;5036284;28;20322;-71
2022/03/13 06:47:50;;;;;;;5.70;3.70;;;;;;;;;;5039296;28;20291;-71
2022/03/13 06:50:19;;;;;;;3.93;3.37;;;;;;;;;;5040540;28;20286;-71
2022/03/13 06:52:47;;;;;;;4.97;3.80;;;;;;;;;;5038304;28;20208;-70
2022/03/13 06:55:16;;;;;;;4.60;3.87;;;;;;;;;;5038575;28;20223;-71
2022/03/13 06:57:45;;;;;;;5.17;3.83;;;;;;;;;;5038775;28;20203;-71
2022/03/13 07:00:14;;;;;;;4.93;3.90;;;;;;;;;;5050616;28;20290;-71
2022/03/13 07:02:49;;;;;;;4.70;3.73;;;;;;;;;;5056279;28;20654;-71
2022/03/13 07:05:19;;;;;;;8.27;4.57;;;;;;;;;;5053896;28;20215;-70
2022/03/13 07:07:47;;;;;;;4.53;4.13;;;;;;;;;;5044409;28;20294;-71
2022/03/13 07:10:15;;;;;;;5.63;3.37;;;;;;;;;;5038756;28;20306;-70
2022/03/13 07:12:44;;;;;;;4.37;3.93;;;;;;;;;;5038752;28;20239;-71
2022/03/13 07:15:13;;;;;;;4.50;4.10;;;;;;;;;;5038729;28;20262;-67
2022/03/13 07:17:42;;;;;;;5.80;4.10;;;;;;;;;;5038662;28;20210;-70
2022/03/13 07:20:12;;;;;;;4.33;3.93;;;;;;;;;;5038474;28;20298;-69
2022/03/13 07:22:40;;;;;;;8.50;5.87;;;;;;;;;;5038308;28;20246;-70
2022/03/13 07:25:09;;;;;;;5.33;3.93;;;;;;;;;;5038368;28;20208;-70
2022/03/13 07:27:37;;;;;;;4.40;3.93;;;;;;;;;;5038829;28;20208;-69
2022/03/13 07:30:06;;;;;;;5.20;4.17;;;;;;;;;;5038718;28;20290;-69
2022/03/13 07:32:34;;;;;;;4.57;3.33;;;;;;;;;;5038372;28;20705;-69
2022/03/13 07:35:02;;;;;;;5.57;3.80;;;;;;;;;;5038173;28;20649;-70
2022/03/13 07:37:31;;;;;;;9.63;4.43;;;;;;;;;;5038121;28;20242;-71
2022/03/13 07:40:01;;;;;;;7.03;3.90;;;;;;;;;;5037513;28;20209;-68
2022/03/13 07:42:29;;;;;;;9.33;3.80;;;;;;;;;;5038052;28;20638;-65
2022/03/13 07:44:57;;;;;;;4.70;3.63;;;;;;;;;;5038195;28;20290;-68
2022/03/13 07:47:25;;;;;;;4.90;3.80;;;;;;;;;;5025247;28;20211;-68
2022/03/13 07:49:53;;;;;;;7.17;4.07;;;;;;;;;;5038043;28;20287;-69
2022/03/13 07:52:21;;;;;;;4.33;3.70;;;;;;;;;;5035256;28;20246;-69
2022/03/13 07:54:51;;;;;;;5.03;3.77;;;;;;;;;;5037602;28;20287;-69
2022/03/13 07:57:19;;;;;;;4.63;3.57;;;;;;;;;;5037300;28;20775;-70
2022/03/13 07:59:47;;;;;;;5.33;3.80;;;;;;;;;;5037338;28;20636;-68
2022/03/13 08:02:15;;;;;;;4.37;3.87;;;;;;;;;;5037555;28;20278;-68
2022/03/13 08:04:43;;;;;;;4.97;3.67;;;;;;;;;;5037187;28;20200;-68
2022/03/13 08:07:11;;;;;;;5.30;3.53;;;;;;;;;;5036389;28;20778;-68
2022/03/13 08:09:40;;;;;;;4.50;4.10;;;;;;;;;;5036078;28;20235;-69
2022/03/13 08:12:10;;;;;;;6.83;3.80;;;;;;;;;;5036385;28;20637;-70
2022/03/13 08:14:37;;;;;;;5.27;3.70;;;;;;;;;;5036851;28;20230;-68
2022/03/13 08:17:06;;;;;;;4.43;4.03;;;;;;;;;;5036434;28;20297;-69
2022/03/13 08:19:34;;;;;;;4.90;3.90;;;;;;;;;;5036234;28;20200;-69
2022/03/13 08:22:02;;;;;;;4.53;3.70;;;;;;;;;;5036460;28;21786;-69
2022/03/13 08:24:30;;;;;;;4.33;3.90;;;;;;;;;;5036449;28;20271;-69
2022/03/13 08:26:58;;;;;;;6.73;3.83;;;;;;;;;;5036213;28;20647;-68
2022/03/13 08:29:32;;;;;;;4.30;3.90;;;;;;;;;;5036095;28;20210;-69
2022/03/13 08:32:00;;;;;;;4.57;3.77;;;;;;;;;;5034764;28;20226;-69
2022/03/13 08:34:34;;;;;;;4.80;3.60;;;;;;;;;;5037010;28;20282;-69
2022/03/13 08:37:03;;;;;;;4.30;3.37;;;;;;;;;;5034579;28;20234;-69
2022/03/13 08:39:31;;;;;;;5.17;3.50;;;;;;;;;;5035452;28;20235;-70
2022/03/13 08:41:59;;;;;;;6.10;3.77;;;;;;;;;;5036390;28;20206;-68
2022/03/13 08:44:27;;;;;;;6.20;4.00;;;;;;;;;;5036536;28;20228;-68
2022/03/13 08:46:57;;;;;;;5.77;3.77;;;;;;;;;;5036037;28;20295;-68
2022/03/13 08:49:25;;;;;;;3.87;3.27;;;;;;;;;;5034431;28;20259;-67
2022/03/13 08:51:54;;;;;;;8.07;3.50;;;;;;;;;;5037005;28;20242;-68
2022/03/13 08:54:22;;;;;;;6.73;3.70;;;;;;;;;;5036770;28;20239;-67
2022/03/13 08:56:50;;;;;;;4.97;3.87;;;;;;;;;;5037186;28;20318;-66
2022/03/13 08:59:20;;;;;;;4.73;4.07;;;;;;;;;;5037120;28;20276;-65
2022/03/13 09:01:48;;;;;;;5.30;3.33;;;;;;;;;;5036709;28;20204;-68
2022/03/13 09:04:18;;;;;;;7.27;3.30;;;;;;;;;;5040980;28;20273;-66
2022/03/13 09:06:46;;;;;;;5.40;3.67;;;;;;;;;;5040371;28;20668;-67
2022/03/13 09:09:14;;;;;;;4.20;3.37;;;;;;;;;;5040298;28;20227;-68
2022/03/13 09:11:42;;;;;;;4.97;3.27;;;;;;;;;;5040655;28;20754;-66
2022/03/13 09:14:10;;;;;;;4.20;3.40;;;;;;;;;;5040330;28;20208;-67
2022/03/13 09:16:42;;;;;;;5.90;3.40;;;;;;;;;;5041308;28;20227;-68
2022/03/13 09:19:10;;;;;;;4.57;3.37;;;;;;;;;;5040874;28;20732;-68
2022/03/13 09:21:40;;;;;;;4.10;3.70;;;;;;;;;;5040519;28;20204;-67
2022/03/13 09:24:08;;;;;;;4.20;3.70;;;;;;;;;;5039836;28;20320;-68
2022/03/13 09:26:40;;;;;;;4.60;3.27;;;;;;;;;;5040357;28;20243;-68
2022/03/13 09:29:08;;;;;;;3.33;3.03;;;;;;;;;;5040915;28;20211;-68
2022/03/13 09:31:36;;;;;;;4.73;3.77;;;;;;;;;;5041122;28;20247;-68
2022/03/13 09:34:04;;;;;;;5.13;3.60;;;;;;;;;;5040551;28;20688;-66
2022/03/13 09:36:36;;;;;;;4.77;3.33;;;;;;;;;;5040914;28;20322;-67
2022/03/13 09:39:06;;;;;;;3.50;3.07;;;;;;;;;;5040433;28;20218;-68
2022/03/13 09:41:38;;;;;;;4.07;3.30;;;;;;;;;;5040735;28;20299;-68
2022/03/13 09:44:07;;;;;;;3.90;2.73;;;;;;;;;;5040792;28;20261;-68
2022/03/13 09:46:36;;;;;;;4.13;3.20;;;;;;;;;;5040288;28;20322;-69
2022/03/13 09:49:04;;;;;;;4.30;3.37;;;;;;;;;;5039686;28;20235;-69
2022/03/13 09:51:32;;;;;;;3.13;2.83;;;;;;;;;;5040731;28;20203;-68
2022/03/13 09:54:02;;;;;;;6.50;3.17;;;;;;;;;;5039945;28;20689;-69
2022/03/13 09:56:34;;;;;;;4.20;3.10;;;;;;;;;;5040280;28;20266;-68
2022/03/13 09:59:02;;;;;;;4.33;3.30;;;;;;;;;;5040175;28;20241;-69
2022/03/13 10:01:30;;;;;;;4.13;3.47;;;;;;;;;;5039508;28;20276;-70
2022/03/13 10:03:58;;;;;;;3.73;3.33;;;;;;;;;;5036715;28;20200;-70
2022/03/13 10:06:27;;;;;;;3.60;3.13;;;;;;;;;;5039375;28;20310;-69
2022/03/13 10:08:55;;;;;;;4.83;3.97;;;;;;;;;;5036736;28;20283;-70
2022/03/13 10:11:34;;;;;;;5.60;3.53;;;;;;;;;;5039416;28;20200;-70
2022/03/13 10:14:10;;;;;;;2.97;2.70;;;;;;;;;;5037260;28;20290;-70
2022/03/13 10:16:38;;;;;;;4.27;3.53;;;;;;;;;;5038859;28;20266;-70
2022/03/13 10:19:16;;;;;;;5.80;3.27;;;;;;;;;;5039463;28;20208;-70
2022/03/13 10:22:00;;;;;;;4.33;3.30;;;;;;;;;;5037858;28;20203;-70
2022/03/13 10:24:28;;;;;;;3.80;2.90;;;;;;;;;;5037780;28;20203;-70
2022/03/13 10:27:08;;;;;;;3.93;3.37;;;;;;;;;;5036491;28;20299;-70
2022/03/13 10:29:37;;;;;;;5.73;2.83;;;;;;;;;;5038584;28;20628;-70
2022/03/13 10:32:05;;;;;;;3.87;3.53;;;;;;;;;;5038968;28;20631;-70
2022/03/13 10:34:33;;;;;;;4.23;3.10;;;;;;;;;;5038866;28;20200;-69
2022/03/13 10:37:02;;;;;;;4.27;3.17;;;;;;;;;;5038452;28;20259;-71
2022/03/13 10:39:30;;;;;;;3.20;2.90;;;;;;;;;;5038564;28;20635;-70
2022/03/13 10:42:02;;;;;;;3.40;2.83;;;;;;;;;;5038654;28;20227;-70
2022/03/13 10:44:34;;;;;;;3.53;3.07;;;;;;;;;;5038972;28;20235;-70
2022/03/13 10:47:04;;;;;;;3.60;3.27;;;;;;;;;;5036794;28;20239;-70
2022/03/13 10:49:40;;;;;;;4.90;3.10;;;;;;;;;;5039906;28;20202;-70
2022/03/13 10:52:23;;;;;;;3.70;3.00;;;;;;;;;;5039840;28;20257;-70
2022/03/13 10:54:52;;;;;;;3.47;3.17;;;;;;;;;;5038197;28;20195;-70
2022/03/13 10:57:21;;;;;;;5.00;3.10;;;;;;;;;;5036369;28;20302;-70
2022/03/13 11:00:04;;;;;;;5.50;3.40;;;;;;;;;;5035471;28;20223;-70
2022/03/13 11:02:32;;;;;;;4.47;3.20;;;;;;;;;;5032734;28;20617;-70
2022/03/13 11:05:00;;;;;;;3.60;3.30;;;;;;;;;;5038237;28;20242;-70
2022/03/13 11:07:28;;;;;;;4.10;3.67;;;;;;;;;;5037820;28;20196;-70
2022/03/13 11:09:57;;;;;;;5.43;3.33;;;;;;;;;;5038222;28;20238;-71
2022/03/13 11:12:27;;;;;;;3.23;2.90;;;;;;;;;;5037000;28;20290;-70
2022/03/13 11:14:56;;;;;;;5.40;3.10;;;;;;;;;;5031441;28;20235;-70
2022/03/13 11:17:26;;;;;;;4.80;2.70;;;;;;;;;;5023574;28;20248;-70
2022/03/13 11:19:56;;;;;;;3.03;2.83;;;;;;;;;;5021230;28;20239;-70
2022/03/13 11:22:25;;;;;;;4.97;3.10;;;;;;;;;;5018612;28;20254;-70
2022/03/13 11:24:55;;;;;;;3.07;2.77;;;;;;;;;;5034022;28;20713;-71
2022/03/13 11:27:25;;;;;;;2.93;2.63;;;;;;;;;;5035334;28;20278;-71
2022/03/13 11:29:55;;;;;;;5.07;2.47;;;;;;;;;;5038506;28;20253;-71
2022/03/13 11:32:34;;;;;;;3.80;2.40;;;;;;;;;;5038270;28;20619;-69
2022/03/13 11:35:21;;;;;;;3.50;2.67;;;;;;;;;;5037735;28;20238;-69
2022/03/13 11:37:50;;;;;;;3.73;2.43;;;;;;;;;;5035316;28;20305;-70
2022/03/13 11:40:19;;;;;;;5.20;2.70;;;;;;;;;;5037878;28;20210;-70
2022/03/13 11:42:48;;;;;;;3.30;2.37;;;;;;;;;;5037710;28;20282;-70
2022/03/13 11:45:32;;;;;;;3.03;2.73;;;;;;;;;;5037665;28;20282;-71
2022/03/13 11:48:17;;;;;;;4.00;3.00;;;;;;;;;;5035730;28;20209;-70
2022/03/13 11:50:51;;;;;;;3.77;2.70;;;;;;;;;;5025841;28;20235;-70
2022/03/13 11:53:19;;;;;;;3.13;2.83;;;;;;;;;;5032185;28;20227;-70
2022/03/13 11:56:09;;;;;;;6.33;2.60;;;;;;;;;;5030872;28;20237;-70
2022/03/13 11:58:42;;;;;;;2.70;2.33;;;;;;;;;;5037059;28;20231;-70
2022/03/13 12:01:12;;;;;;;2.77;2.57;;;;;;;;;;5034930;28;20235;-70
2022/03/13 12:03:40;;;;;;;4.93;2.83;;;;;;;;;;5037565;28;20196;-70
2022/03/13 12:06:09;;;;;;;3.53;3.23;;;;;;;;;;5037797;28;20261;-70
2022/03/13 12:08:56;;;;;;;3.00;2.80;;;;;;;;;;5037000;28;20228;-70
2022/03/13 12:11:39;;;;;;;3.57;2.70;;;;;;;;;;5036260;28;20654;-70
2022/03/13 12:14:08;;;;;;;6.20;2.73;;;;;;;;;;5026307;28;20262;-70
2022/03/13 12:16:37;;;;;;;5.43;3.30;;;;;;;;;;5036934;28;20314;-70
2022/03/13 12:19:05;;;;;;;3.17;2.83;;;;;;;;;;5037262;28;20277;-70
2022/03/13 12:21:35;;;;;;;4.83;3.00;;;;;;;;;;5035173;28;20234;-70
2022/03/13 12:24:12;;;;;;;3.13;2.93;;;;;;;;;;5029830;28;20295;-70
2022/03/13 12:26:41;;;;;;;3.53;2.77;;;;;;;;;;5030831;28;20311;-70
2022/03/13 12:29:12;;;;;;;3.27;3.00;;;;;;;;;;5029983;28;20651;-70
2022/03/13 12:31:41;;;;;;;2.57;2.13;;;;;;;;;;5030917;28;20236;-70
2022/03/13 12:34:10;;;;;;;3.93;3.53;;;;;;;;;;5033455;28;20207;-70
2022/03/13 12:36:40;;;;;;;2.90;2.60;;;;;;;;;;5041033;28;20301;-71
2022/03/13 12:39:12;;;;;;;3.50;2.90;;;;;;;;;;5053579;28;20233;-70
2022/03/13 12:41:43;;;;;;;3.90;2.90;;;;;;;;;;5056538;28;20230;-69
2022/03/13 12:44:13;;;;;;;4.00;2.60;;;;;;;;;;5052111;28;20207;-71
2022/03/13 12:46:42;;;;;;;4.87;3.00;;;;;;;;;;5036712;28;20575;-69
2022/03/13 12:49:12;;;;;;;3.30;2.67;;;;;;;;;;5049432;28;20198;-69
2022/03/13 12:51:44;;;;;;;4.97;3.23;;;;;;;;;;5055472;28;20227;-69
2022/03/13 12:54:13;;;;;;;4.87;2.87;;;;;;;;;;5052240;28;20714;-69
2022/03/13 12:56:47;;;;;;;3.57;3.07;;;;;;;;;;5054016;28;20261;-69
2022/03/13 12:59:25;;;;;;;4.03;2.70;;;;;;;;;;5045637;28;20270;-72
2022/03/13 13:02:03;;;;;;;3.57;2.93;;;;;;;;;;5038740;28;20691;-71
2022/03/13 13:04:32;;;;;;;4.93;3.00;;;;;;;;;;5054007;28;20281;-70
2022/03/13 13:07:03;;;;;;;5.50;2.87;;;;;;;;;;5046608;28;20307;-71
2022/03/13 13:09:32;;;;;;;2.60;2.40;;;;;;;;;;5054093;28;20198;-69
2022/03/13 13:12:00;;;;;;;3.60;2.97;;;;;;;;;;5050200;28;20746;-67
2022/03/13 13:14:29;;;;;;;2.67;2.47;;;;;;;;;;5052822;28;20199;-68
2022/03/13 13:16:58;;;;;;;3.17;2.63;;;;;;;;;;5036985;28;20230;-69
2022/03/13 13:19:26;;;;;;;4.37;3.13;;;;;;;;;;5036969;28;20304;-67
2022/03/13 13:21:56;;;;;;;2.80;2.57;;;;;;;;;;5036992;28;20203;-67
2022/03/13 13:24:34;;;;;;;4.80;3.90;;;;;;;;;;5036446;28;20261;-67
2022/03/13 13:27:02;;;;;;;3.47;3.13;;;;;;;;;;5035297;28;20259;-67
2022/03/13 13:29:31;;;;;;;5.83;4.13;;;;;;;;;;5036651;28;20235;-67
2022/03/13 13:32:20;;;;;;;4.40;3.80;;;;;;;;;;5036717;28;20619;-67
2022/03/13 13:35:00;;;;;;;5.33;3.67;;;;;;;;;;5032183;28;20250;-67
2022/03/13 13:37:28;;;;;;;3.40;3.10;;;;;;;;;;5050511;28;20237;-67
2022/03/13 13:40:08;;;;;;;4.17;3.87;;;;;;;;;;5055212;28;20695;-67
2022/03/13 13:42:37;;;;;;;4.80;4.37;;;;;;;;;;5052607;28;20241;-67
2022/03/13 13:45:26;;;;;;;4.77;4.37;;;;;;;;;;5053250;28;20638;-68
2022/03/13 13:47:54;;;;;;;3.50;3.20;;;;;;;;;;5041641;28;20239;-72
2022/03/13 13:50:26;;;;;;;3.63;3.00;;;;;;;;;;5038937;28;20231;-74
2022/03/13 13:53:02;;;;;;;5.33;3.10;;;;;;;;;;5039508;28;20290;-73
2022/03/13 13:55:36;;;;;;;3.50;2.60;;;;;;;;;;5039879;28;20258;-74
2022/03/13 13:58:15;;;;;;;3.70;2.63;;;;;;;;;;5040286;28;20281;-73
2022/03/13 14:00:43;;;;;;;3.13;2.87;;;;;;;;;;5039802;28;20262;-74
2022/03/13 14:03:11;;;;;;;4.73;2.50;;;;;;;;;;5039673;28;20295;-73
2022/03/13 14:05:40;;;;;;;3.63;2.97;;;;;;;;;;5039711;28;20710;-73
2022/03/13 14:08:20;;;;;;;2.90;2.70;;;;;;;;;;5039617;28;20215;-73
2022/03/13 14:10:49;;;;;;;3.17;2.83;;;;;;;;;;5040282;28;20265;-73
2022/03/13 14:13:17;;;;;;;3.13;2.67;;;;;;;;;;5039799;28;20235;-73
2022/03/13 14:15:45;;;;;;;3.20;2.80;;;;;;;;;;5039503;28;20274;-72
2022/03/13 14:18:13;;;;;;;3.37;2.97;;;;;;;;;;5039640;28;20306;-71
2022/03/13 14:20:41;;;;;;;3.27;2.60;;;;;;;;;;5040084;28;20270;-71
2022/03/13 14:23:09;;;;;;;2.90;2.63;;;;;;;;;;5039419;28;20702;-71
2022/03/13 14:25:41;;;;;;;4.07;3.00;;;;;;;;;;5039635;28;20607;-71
2022/03/13 14:28:12;;;;;;;4.40;3.03;;;;;;;;;;5039742;28;20713;-71
2022/03/13 14:30:40;;;;;;;4.90;3.57;;;;;;;;;;5039505;28;20231;-72
2022/03/13 14:33:09;;;;;;;21.40;9.23;;;;;;;;;;5039779;28;20208;-68
2022/03/13 14:35:37;;;;;;;4.77;3.57;;;;;;;;;;5039284;28;20334;-75
2022/03/13 14:38:05;;;;;;;4.07;2.97;;;;;;;;;;5039229;28;20207;-74
2022/03/13 14:40:39;;;;;;;3.00;2.70;;;;;;;;;;5039212;28;20293;-74
2022/03/13 14:43:07;;;;;;;2.83;2.63;;;;;;;;;;5039350;28;20589;-74
2022/03/13 14:45:37;;;;;;;3.10;2.53;;;;;;;;;;5038835;28;20300;-74
2022/03/13 14:48:05;;;;;;;3.30;3.00;;;;;;;;;;5039120;28;20667;-75
2022/03/13 14:50:46;;;;;;;5.37;3.10;;;;;;;;;;5031604;28;20253;-74
2022/03/13 14:53:18;;;;;;;3.50;2.53;;;;;;;;;;5039295;28;20297;-74
2022/03/13 14:55:46;;;;;;;4.83;3.00;;;;;;;;;;5039348;28;20297;-75
2022/03/13 14:58:14;;;;;;;5.00;2.83;;;;;;;;;;5039175;28;20231;-75